createdAt,value
2023-01-19T00:00:27.615Z,1.17
2023-01-19T00:02:54.992Z,1.38
2023-01-19T00:05:21.944Z,1.40
2023-01-19T00:07:48.867Z,1.60
2023-01-19T00:10:16.189Z,1.30
2023-01-19T00:12:43.448Z,1.50
2023-01-19T00:15:10.779Z,1.60
2023-01-19T00:18:04.392Z,1.58
2023-01-19T00:20:32.287Z,1.98
2023-01-19T00:22:59.445Z,1.65
2023-01-19T00:28:44.428Z,1.70
2023-01-19T00:31:12.609Z,1.85
2023-01-19T00:33:39.443Z,1.88
2023-01-19T00:36:07.246Z,1.90
2023-01-19T00:38:34.351Z,1.60
2023-01-19T00:41:01.707Z,2.13
2023-01-19T00:43:32.625Z,1.90
2023-01-19T00:45:59.660Z,1.70
2023-01-19T00:48:26.445Z,2.05
2023-01-19T00:50:54.454Z,2.10
2023-01-19T00:53:21.226Z,1.95
2023-01-19T00:55:52.006Z,2.00
2023-01-19T00:58:21.434Z,1.90
2023-01-19T01:00:49.087Z,1.80
2023-01-19T01:03:16.384Z,2.43
2023-01-19T01:05:43.454Z,2.05
2023-01-19T01:08:10.246Z,2.05
2023-01-19T01:10:38.908Z,1.77
2023-01-19T01:13:20.250Z,2.17
2023-01-19T01:18:46.131Z,2.20
2023-01-19T01:21:12.979Z,1.98
2023-01-19T01:23:41.109Z,2.35
2023-01-19T01:26:07.888Z,2.20
2023-01-19T01:28:39.457Z,2.30
2023-01-19T01:31:06.218Z,2.30
2023-01-19T01:33:40.508Z,2.58
2023-01-19T01:36:13.661Z,2.00
2023-01-19T01:38:42.220Z,2.17
2023-01-19T01:41:09.685Z,2.37
2023-01-19T01:43:54.863Z,2.67
2023-01-19T01:46:21.731Z,2.08
2023-01-19T01:49:08.157Z,2.03
2023-01-19T01:51:48.499Z,2.00
2023-01-19T01:54:29.457Z,1.93
2023-01-19T01:57:02.817Z,1.90
2023-01-19T01:59:35.720Z,2.22
2023-01-19T02:02:06.684Z,1.90
2023-01-19T02:04:34.483Z,2.03
2023-01-19T02:07:01.960Z,2.17
2023-01-19T02:09:32.616Z,2.22
2023-01-19T02:12:00.484Z,2.30
2023-01-19T02:14:27.543Z,2.33
2023-01-19T02:16:54.545Z,2.22
2023-01-19T02:19:28.683Z,1.73
2023-01-19T02:22:04.231Z,2.00
2023-01-19T02:24:32.334Z,1.80
2023-01-19T02:27:00.271Z,2.33
2023-01-19T02:29:29.577Z,2.00
2023-01-19T02:31:56.513Z,2.30
2023-01-19T02:34:24.258Z,2.00
2023-01-19T02:37:17.091Z,2.40
2023-01-19T02:39:56.480Z,2.00
2023-01-19T02:42:35.120Z,2.40
2023-01-19T02:45:11.629Z,2.10
2023-01-19T02:47:40.705Z,2.22
2023-01-19T02:50:36.444Z,1.90
2023-01-19T02:53:13.145Z,2.22
2023-01-19T02:56:31.391Z,2.05
2023-01-19T02:59:16.865Z,2.00
2023-01-19T03:02:01.545Z,1.88
2023-01-19T03:04:40.995Z,2.00
2023-01-19T03:07:17.826Z,1.92
2023-01-19T03:09:51.110Z,2.20
2023-01-19T03:15:58.993Z,2.00
2023-01-19T03:18:33.958Z,2.13
2023-01-19T03:21:06.696Z,1.80
2023-01-19T03:23:38.610Z,2.10
2023-01-19T03:26:12.474Z,2.27
2023-01-19T03:28:41.880Z,2.42
2023-01-19T03:31:17.914Z,2.10
2023-01-19T03:33:50.939Z,2.00
2023-01-19T03:36:29.509Z,2.10
2023-01-19T03:38:58.273Z,2.17
2023-01-19T03:41:32.430Z,2.40
2023-01-19T03:44:03.828Z,2.20
2023-01-19T03:46:33.501Z,2.13
2023-01-19T03:49:02.519Z,2.20
2023-01-19T03:51:30.491Z,2.60
2023-01-19T03:53:57.339Z,2.55
2023-01-19T03:56:25.880Z,2.63
2023-01-19T03:58:53.527Z,2.33
2023-01-19T04:01:21.171Z,3.00
2023-01-19T04:04:15.704Z,2.57
2023-01-19T04:06:44.171Z,2.45
2023-01-19T04:09:10.926Z,3.10
2023-01-19T04:11:39.617Z,2.90
2023-01-19T04:14:06.426Z,2.67
2023-01-19T04:16:58.694Z,2.73
2023-01-19T04:19:25.640Z,2.80
2023-01-19T04:21:52.938Z,2.92
2023-01-19T04:24:23.524Z,2.70
2023-01-19T04:26:52.106Z,3.13
2023-01-19T04:29:18.932Z,3.50
2023-01-19T04:31:45.802Z,3.05
2023-01-19T04:34:37.549Z,3.20
2023-01-19T04:37:06.626Z,3.30
2023-01-19T04:39:33.375Z,3.35
2023-01-19T04:42:05.474Z,3.13
2023-01-19T04:44:36.015Z,3.42
2023-01-19T04:47:02.890Z,3.30
2023-01-19T04:49:29.996Z,3.47
2023-01-19T04:51:57.059Z,2.97
2023-01-19T04:57:39.783Z,3.17
2023-01-19T05:00:31.578Z,3.33
2023-01-19T05:03:00.874Z,3.00
2023-01-19T05:05:29.579Z,3.33
2023-01-19T05:07:56.542Z,3.40
2023-01-19T05:10:48.774Z,3.38
2023-01-19T05:13:16.600Z,3.35
2023-01-19T05:15:43.950Z,3.53
2023-01-19T05:18:10.742Z,3.15
2023-01-19T05:20:38.984Z,3.60
2023-01-19T05:23:09.068Z,3.50
2023-01-19T05:25:36.104Z,3.53
2023-01-19T05:28:02.971Z,3.78
2023-01-19T05:30:29.755Z,3.70
2023-01-19T05:32:56.570Z,3.87
2023-01-19T05:35:35.419Z,3.95
2023-01-19T05:38:05.098Z,4.22
2023-01-19T05:40:33.195Z,3.95
2023-01-19T05:43:00.412Z,4.20
2023-01-19T05:45:27.902Z,4.20
2023-01-19T05:48:19.543Z,4.00
2023-01-19T05:50:47.053Z,4.47
2023-01-19T05:53:13.759Z,4.05
2023-01-19T05:55:40.714Z,4.07
2023-01-19T05:58:07.448Z,4.23
2023-01-19T06:00:34.285Z,4.32
2023-01-19T06:03:01.467Z,3.78
2023-01-19T06:05:53.589Z,3.95
2023-01-19T06:08:24.521Z,4.07
2023-01-19T06:10:51.746Z,3.97
2023-01-19T06:13:19.596Z,4.05
2023-01-19T06:15:46.437Z,4.60
2023-01-19T06:18:14.208Z,4.00
2023-01-19T06:20:41.129Z,3.95
2023-01-19T06:23:08.028Z,3.90
2023-01-19T06:25:35.499Z,4.10
2023-01-19T06:28:02.320Z,3.65
2023-01-19T06:30:33.684Z,4.00
2023-01-19T06:33:01.342Z,3.70
2023-01-19T06:35:28.308Z,4.23
2023-01-19T06:37:55.752Z,3.97
2023-01-19T06:40:22.907Z,4.32
2023-01-19T06:42:50.759Z,3.70
2023-01-19T06:45:17.642Z,4.00
2023-01-19T06:47:47.925Z,3.97
2023-01-19T06:50:15.068Z,3.92
2023-01-19T06:52:42.259Z,3.85
2023-01-19T06:55:12.599Z,3.85
2023-01-19T06:57:39.722Z,4.68
2023-01-19T07:00:08.037Z,3.63
2023-01-19T07:02:36.297Z,3.95
2023-01-19T07:05:03.155Z,3.83
2023-01-19T07:07:30.233Z,3.70
2023-01-19T07:10:23.815Z,3.90
2023-01-19T07:12:51.193Z,3.70
2023-01-19T07:15:20.226Z,3.70
2023-01-19T07:17:47.287Z,4.07
2023-01-19T07:20:14.719Z,3.40
2023-01-19T07:23:06.625Z,3.28
2023-01-19T07:25:34.579Z,3.27
2023-01-19T07:28:01.340Z,3.20
2023-01-19T07:30:29.592Z,3.40
2023-01-19T07:32:57.476Z,3.40
2023-01-19T07:35:25.844Z,3.20
2023-01-19T07:37:52.912Z,3.00
2023-01-19T07:40:20.619Z,2.80
2023-01-19T07:42:49.533Z,2.90
2023-01-19T07:45:21.461Z,3.15
2023-01-19T07:48:13.661Z,3.30
2023-01-19T07:50:41.430Z,3.03
2023-01-19T07:53:09.294Z,2.95
2023-01-19T07:55:36.565Z,2.95
2023-01-19T07:58:03.874Z,3.25
2023-01-19T08:00:30.639Z,4.03
2023-01-19T08:03:01.485Z,3.20
2023-01-19T08:05:29.140Z,3.63
2023-01-19T08:07:57.310Z,3.30
2023-01-19T08:10:26.417Z,3.13
2023-01-19T08:12:57.490Z,3.28
2023-01-19T08:15:26.832Z,3.13
2023-01-19T08:18:01.287Z,3.17
2023-01-19T08:20:30.316Z,3.05
2023-01-19T08:22:57.159Z,3.00
2023-01-19T08:25:24.074Z,3.22
2023-01-19T08:27:55.703Z,2.90
2023-01-19T08:30:23.580Z,2.85
2023-01-19T08:32:50.383Z,3.20
2023-01-19T08:35:21.610Z,2.90
2023-01-19T08:37:48.512Z,2.80
2023-01-19T08:40:15.701Z,2.90
2023-01-19T08:42:43.002Z,2.85
2023-01-19T08:45:09.953Z,3.10
2023-01-19T08:47:37.697Z,3.35
2023-01-19T08:50:04.682Z,3.15
2023-01-19T08:52:34.803Z,3.13
2023-01-19T08:55:01.564Z,2.95
2023-01-19T08:57:29.078Z,3.50
2023-01-19T08:59:55.967Z,3.00
2023-01-19T09:02:24.233Z,2.67
2023-01-19T09:04:50.963Z,3.27
2023-01-19T09:07:21.742Z,3.08
2023-01-19T09:09:49.100Z,3.08
2023-01-19T09:12:15.934Z,2.90
2023-01-19T09:15:08.295Z,2.70
2023-01-19T09:18:00.987Z,2.47
2023-01-19T09:20:29.261Z,2.83
2023-01-19T09:22:56.453Z,2.95
2023-01-19T09:25:25.259Z,2.67
2023-01-19T09:27:52.522Z,2.90
2023-01-19T09:30:20.188Z,2.90
2023-01-19T09:32:47.184Z,2.70
2023-01-19T09:35:14.125Z,2.70
2023-01-19T09:37:40.919Z,2.70
2023-01-19T09:40:10.999Z,3.28
2023-01-19T09:42:48.886Z,2.93
2023-01-19T09:45:37.433Z,2.70
2023-01-19T09:48:33.600Z,2.50
2023-01-19T09:51:04.567Z,2.40
2023-01-19T09:53:56.311Z,2.45
2023-01-19T09:59:24.682Z,2.40
2023-01-19T10:01:58.064Z,2.60
2023-01-19T10:04:41.702Z,2.33
2023-01-19T10:07:19.206Z,2.08
2023-01-19T10:10:18.882Z,1.93
2023-01-19T10:12:49.106Z,1.90
2023-01-19T10:18:50.657Z,2.05
2023-01-19T10:21:27.592Z,2.30
2023-01-19T10:24:40.670Z,2.50
2023-01-19T10:27:20.758Z,2.33
2023-01-19T10:29:51.725Z,2.40
2023-01-19T10:32:34.648Z,3.20
2023-01-19T10:35:15.535Z,2.58
2023-01-19T10:37:43.295Z,2.13
2023-01-19T10:40:13.601Z,1.88
2023-01-19T10:42:42.016Z,2.17
2023-01-19T10:45:17.182Z,2.10
2023-01-19T10:47:46.575Z,2.00
2023-01-19T10:50:36.731Z,1.83
2023-01-19T10:53:28.924Z,2.78
2023-01-19T10:56:17.758Z,2.25
2023-01-19T10:58:44.564Z,1.90
2023-01-19T11:01:14.009Z,1.85
2023-01-19T11:03:42.648Z,2.30
2023-01-19T11:06:15.216Z,2.15
2023-01-19T11:08:47.632Z,2.08
2023-01-19T11:11:14.392Z,1.75
2023-01-19T11:13:43.687Z,1.90
2023-01-19T11:16:25.058Z,2.07
2023-01-19T11:18:55.714Z,1.55
2023-01-19T11:21:27.910Z,1.80
2023-01-19T11:24:05.566Z,1.35
2023-01-19T11:26:44.931Z,1.75
2023-01-19T11:29:26.744Z,1.20
2023-01-19T11:31:55.641Z,1.02
2023-01-19T11:34:32.615Z,1.08
2023-01-19T11:37:01.703Z,0.77
2023-01-19T11:39:31.669Z,0.52
2023-01-19T11:42:02.501Z,0.87
2023-01-19T11:44:37.672Z,0.80
2023-01-19T11:47:14.569Z,1.10
2023-01-19T11:49:53.680Z,1.23
2023-01-19T11:53:05.453Z,1.23
2023-01-19T11:55:43.037Z,1.00
2023-01-19T11:58:17.747Z,1.10
2023-01-19T12:00:51.805Z,3.85
2023-01-19T12:03:41.830Z,1.48
2023-01-19T12:06:44.764Z,0.75
2023-01-19T12:09:35.182Z,0.90
2023-01-19T12:12:10.760Z,1.00
2023-01-19T12:14:44.142Z,1.02
2023-01-19T12:17:23.767Z,1.00
2023-01-19T12:20:01.019Z,1.00
2023-01-19T12:22:30.867Z,0.83
2023-01-19T12:25:33.662Z,1.02
2023-01-19T12:28:02.695Z,0.80
2023-01-19T12:30:30.347Z,1.25
2023-01-19T12:33:23.716Z,0.98
2023-01-19T12:36:31.172Z,1.07
2023-01-19T12:39:04.239Z,1.20
2023-01-19T12:41:36.966Z,1.20
2023-01-19T12:44:10.260Z,0.90
2023-01-19T12:46:38.119Z,1.35
2023-01-19T12:49:35.749Z,1.37
2023-01-19T12:52:11.695Z,1.33
2023-01-19T12:54:43.950Z,1.58
2023-01-19T12:57:28.648Z,2.50
2023-01-19T13:00:02.722Z,2.90
2023-01-19T13:02:47.172Z,3.70
2023-01-19T13:05:39.972Z,4.25
2023-01-19T13:08:06.844Z,4.65
2023-01-19T13:11:12.189Z,5.20
2023-01-19T13:13:47.992Z,5.80
2023-01-19T13:16:21.839Z,5.40
2023-01-19T13:19:00.617Z,5.40
2023-01-19T13:21:45.059Z,5.65
2023-01-19T13:24:21.973Z,4.82
2023-01-19T13:26:49.158Z,5.07
2023-01-19T13:29:33.607Z,5.00
2023-01-19T13:35:01.113Z,5.40
2023-01-19T13:37:38.756Z,5.43
2023-01-19T13:40:10.763Z,5.28
2023-01-19T13:42:40.258Z,5.23
2023-01-19T13:45:29.864Z,4.93
2023-01-19T13:47:59.957Z,5.57
2023-01-19T13:50:29.878Z,5.50
2023-01-19T13:52:57.603Z,5.45
2023-01-19T13:55:27.265Z,5.03
2023-01-19T13:57:55.734Z,4.68
2023-01-19T14:00:26.206Z,5.35
2023-01-19T14:02:59.840Z,5.00
2023-01-19T14:05:27.088Z,5.15
2023-01-19T14:08:10.640Z,4.67
2023-01-19T14:11:06.254Z,4.70
2023-01-19T14:13:37.765Z,5.30
2023-01-19T14:16:08.144Z,4.50
2023-01-19T14:18:39.749Z,4.95
2023-01-19T14:21:13.194Z,4.77
2023-01-19T14:23:55.807Z,5.03
2023-01-19T14:26:39.086Z,5.35
2023-01-19T14:29:14.818Z,4.95
2023-01-19T14:31:47.855Z,5.40
2023-01-19T14:34:45.720Z,5.00
2023-01-19T14:37:23.407Z,5.20
2023-01-19T14:43:01.631Z,5.18
2023-01-19T14:45:39.991Z,5.63
2023-01-19T14:48:17.820Z,5.10
2023-01-19T14:51:02.512Z,5.13
2023-01-19T14:53:52.859Z,5.30
2023-01-19T14:56:31.965Z,5.20
2023-01-19T15:02:01.016Z,5.53
2023-01-19T15:04:27.891Z,5.07
2023-01-19T15:06:56.840Z,5.13
2023-01-19T15:09:24.145Z,4.90
2023-01-19T15:11:52.242Z,4.75
2023-01-19T15:14:21.780Z,5.27
2023-01-19T15:16:49.033Z,4.60
2023-01-19T15:19:41.889Z,4.70
2023-01-19T15:22:13.332Z,4.60
2023-01-19T15:24:40.191Z,4.70
2023-01-19T15:27:11.806Z,4.90
2023-01-19T15:29:40.322Z,4.68
2023-01-19T15:32:18.780Z,5.07
2023-01-19T15:34:45.624Z,4.90
2023-01-19T15:37:12.349Z,4.43
2023-01-19T15:39:39.853Z,4.97
2023-01-19T15:42:32.063Z,4.85
2023-01-19T15:44:59.244Z,4.80
2023-01-19T15:47:50.940Z,4.90
2023-01-19T15:50:20.770Z,5.22
2023-01-19T15:52:47.595Z,4.97
2023-01-19T15:55:15.433Z,4.45
2023-01-19T15:58:08.082Z,4.95
2023-01-19T16:00:37.999Z,4.78
2023-01-19T16:03:06.101Z,5.07
2023-01-19T16:06:04.259Z,5.00
2023-01-19T16:08:31.475Z,4.65
2023-01-19T16:11:04.080Z,5.05
2023-01-19T16:13:32.469Z,4.60
2023-01-19T16:16:13.280Z,4.40
2023-01-19T16:18:40.312Z,4.60
2023-01-19T16:21:07.500Z,4.55
2023-01-19T16:23:38.237Z,4.88
2023-01-19T16:26:22.766Z,4.28
2023-01-19T16:28:50.983Z,4.70
2023-01-19T16:31:19.511Z,4.73
2023-01-19T16:33:46.366Z,4.30
2023-01-19T16:36:25.829Z,4.20
2023-01-19T16:38:53.995Z,4.72
2023-01-19T16:41:21.236Z,4.10
2023-01-19T16:43:54.041Z,4.00
2023-01-19T16:46:24.562Z,3.90
2023-01-19T16:48:54.002Z,4.40
2023-01-19T16:51:21.061Z,4.50
2023-01-19T16:53:49.745Z,4.15
2023-01-19T16:56:17.717Z,4.10
2023-01-19T16:58:45.567Z,4.03
2023-01-19T17:01:18.367Z,4.30
2023-01-19T17:03:51.016Z,4.22
2023-01-19T17:06:21.104Z,3.58
2023-01-19T17:08:49.194Z,3.77
2023-01-19T17:11:42.211Z,4.88
2023-01-19T17:14:18.588Z,4.25
2023-01-19T17:17:12.928Z,4.03
2023-01-19T17:19:41.134Z,4.18
2023-01-19T17:22:11.027Z,4.37
2023-01-19T17:25:03.614Z,4.18
2023-01-19T17:27:31.620Z,4.32
2023-01-19T17:29:58.830Z,4.50
2023-01-19T17:32:25.758Z,4.15
2023-01-19T17:37:46.993Z,4.35
2023-01-19T17:40:14.284Z,4.25
2023-01-19T17:42:44.989Z,3.90
2023-01-19T17:45:12.803Z,4.03
2023-01-19T17:47:40.530Z,4.40
2023-01-19T17:50:07.974Z,4.10
2023-01-19T17:53:01.798Z,4.18
2023-01-19T17:55:29.992Z,4.10
2023-01-19T17:58:00.240Z,3.97
2023-01-19T18:00:30.524Z,4.00
2023-01-19T18:03:00.268Z,3.95
2023-01-19T18:05:28.007Z,3.58
2023-01-19T18:07:56.779Z,4.65
2023-01-19T18:10:25.241Z,3.85
2023-01-19T18:12:54.138Z,3.70
2023-01-19T18:15:21.880Z,3.47
2023-01-19T18:17:50.945Z,3.08
2023-01-19T18:20:19.197Z,3.90
2023-01-19T18:22:47.567Z,3.50
2023-01-19T18:25:16.201Z,3.40
2023-01-19T18:27:45.260Z,3.40
2023-01-19T18:30:13.016Z,3.20
2023-01-19T18:32:42.919Z,3.40
2023-01-19T18:35:11.969Z,3.60
2023-01-19T18:37:39.420Z,3.60
2023-01-19T18:40:07.797Z,3.53
2023-01-19T18:42:35.516Z,3.85
2023-01-19T18:45:06.349Z,3.67
2023-01-19T18:47:35.918Z,3.67
2023-01-19T18:50:06.386Z,3.87
2023-01-19T18:52:38.299Z,4.32
2023-01-19T18:55:06.066Z,4.10
2023-01-19T18:57:35.875Z,3.80
2023-01-19T19:00:07.109Z,3.78
2023-01-19T19:02:38.202Z,3.90
2023-01-19T19:08:00.227Z,3.88
2023-01-19T19:10:29.855Z,4.00
2023-01-19T19:12:58.141Z,4.30
2023-01-19T19:15:30.477Z,3.90
2023-01-19T19:18:00.502Z,4.25
2023-01-19T19:20:27.692Z,3.83
2023-01-19T19:23:27.170Z,3.72
2023-01-19T19:26:01.613Z,3.65
2023-01-19T19:28:31.391Z,4.20
2023-01-19T19:31:09.756Z,3.95
2023-01-19T19:33:39.884Z,4.20
2023-01-19T19:36:08.593Z,4.45
2023-01-19T19:39:02.303Z,4.00
2023-01-19T19:41:30.175Z,4.10
2023-01-19T19:43:58.965Z,4.43
2023-01-19T19:46:28.427Z,4.30
2023-01-19T19:48:59.450Z,4.63
2023-01-19T19:51:28.626Z,3.90
2023-01-19T19:54:01.365Z,4.50
2023-01-19T19:56:31.958Z,4.55
2023-01-19T19:59:04.388Z,4.03
2023-01-19T20:01:33.908Z,4.15
2023-01-19T20:04:10.236Z,4.72
2023-01-19T20:06:41.326Z,4.33
2023-01-19T20:09:15.590Z,4.68
2023-01-19T20:11:46.025Z,4.78
2023-01-19T20:14:16.045Z,3.92
2023-01-19T20:16:45.427Z,4.20
2023-01-19T20:19:15.612Z,4.40
2023-01-19T20:21:43.583Z,4.75
2023-01-19T20:24:16.531Z,4.88
2023-01-19T20:26:51.534Z,4.10
2023-01-19T20:29:21.254Z,4.28
2023-01-19T20:31:55.590Z,4.33
2023-01-19T20:34:28.076Z,4.40
2023-01-19T20:36:56.487Z,4.22
2023-01-19T20:39:26.375Z,4.35
2023-01-19T20:41:54.582Z,4.40
2023-01-19T20:44:26.741Z,4.60
2023-01-19T20:46:57.263Z,4.50
2023-01-19T20:49:26.634Z,4.53
2023-01-19T20:51:59.986Z,4.75
2023-01-19T20:54:30.305Z,4.50
2023-01-19T20:56:58.580Z,4.17
2023-01-19T20:59:26.912Z,4.40
2023-01-19T21:01:54.973Z,4.75
2023-01-19T21:04:24.296Z,4.43
2023-01-19T21:06:51.871Z,4.53
2023-01-19T21:09:19.303Z,4.40
2023-01-19T21:11:50.016Z,4.20
2023-01-19T21:14:18.329Z,4.93
2023-01-19T21:16:48.835Z,4.63
2023-01-19T21:19:17.274Z,4.55
2023-01-19T21:21:45.740Z,4.23
2023-01-19T21:24:15.335Z,3.90
2023-01-19T21:27:07.344Z,4.50
2023-01-19T21:29:35.045Z,4.50
2023-01-19T21:32:02.151Z,4.10
2023-01-19T21:34:30.357Z,4.30
2023-01-19T21:42:40.959Z,3.92
2023-01-19T21:45:08.561Z,4.60
2023-01-19T21:47:36.066Z,3.90
2023-01-19T21:52:54.996Z,4.35
2023-01-19T21:55:21.739Z,4.38
2023-01-19T21:57:52.238Z,4.30
2023-01-19T22:00:20.875Z,3.87
2023-01-19T22:03:02.694Z,3.40
2023-01-19T22:05:36.720Z,4.00
2023-01-19T22:08:06.119Z,3.85
2023-01-19T22:10:36.153Z,3.72
2023-01-19T22:13:06.626Z,3.37
2023-01-19T22:15:33.694Z,3.70
2023-01-19T22:18:00.982Z,3.70
2023-01-19T22:20:28.394Z,3.70
2023-01-19T22:22:59.971Z,3.53
2023-01-19T22:25:28.947Z,3.67
2023-01-19T22:27:59.994Z,3.20
2023-01-19T22:30:27.613Z,3.42
2023-01-19T22:32:54.742Z,3.38
2023-01-19T22:35:22.610Z,3.58
2023-01-19T22:37:50.880Z,3.10
2023-01-19T22:40:20.298Z,3.20
2023-01-19T22:42:47.983Z,3.55
2023-01-19T22:45:15.865Z,2.65
2023-01-19T22:47:42.996Z,3.00
2023-01-19T22:50:10.313Z,3.13
2023-01-19T22:52:37.994Z,2.85
2023-01-19T22:55:05.256Z,3.10
2023-01-19T22:57:33.437Z,3.28
2023-01-19T23:00:00.984Z,3.28
2023-01-19T23:02:27.726Z,2.80
2023-01-19T23:04:54.526Z,3.13
2023-01-19T23:07:22.033Z,2.85
2023-01-19T23:09:49.428Z,3.00
2023-01-19T23:12:16.375Z,2.70
2023-01-19T23:14:43.414Z,2.80
2023-01-19T23:17:10.497Z,2.70
2023-01-19T23:19:38.029Z,2.88
2023-01-19T23:22:05.431Z,2.70
2023-01-19T23:24:34.115Z,2.58
2023-01-19T23:27:00.922Z,2.83
2023-01-19T23:29:27.770Z,2.50
2023-01-19T23:31:55.996Z,2.97
2023-01-19T23:34:23.451Z,3.10
2023-01-19T23:36:50.310Z,3.00
2023-01-19T23:39:24.020Z,2.80
2023-01-19T23:41:52.523Z,3.05
2023-01-19T23:44:23.007Z,3.15
2023-01-19T23:46:50.136Z,3.10
2023-01-19T23:49:18.057Z,3.00
2023-01-19T23:51:44.841Z,3.30
2023-01-19T23:54:14.566Z,3.00
2023-01-19T23:57:05.925Z,3.58
2023-01-19T23:59:38.065Z,3.45
